Terminal Aerodrome Forecast
Issued by NWS Sioux Falls, SD

Home | Current Version | Previous Version | Text Only | Print | Product List | Glossary On
Versions: 1 2 3 4 5 6 7 8 9 10 11 12 13 14 15 16 17 18
311
FTUS43 KFSD 270535
TAFFSD
TAF
KFSD 270535Z 2706/2806 07016G24KT P6SM SHRA OVC012
     FM271100 08022G29KT P6SM SHRA OVC015
     FM271300 08024G32KT 6SM SHRA OVC008
     FM280300 07016G23KT P6SM SHRA OVC008=

USA.gov is the U.S. government's official web portal to all federal, state and local government web resources and services.